Kalgoorlie, Australia
Current Conditions -  °F | °C
As of 6:30 AM on Monday 24 Nov 2014 (Local Time) from YPKG Reporting Station
Clear Clear  
Wind Chill: 57°   Ceiling: Unl
Heat Index: 57°   Visibility: 6mi
Dew Point: 41°   Wind: 17mph
Humidity: 55%   Direction: 110°ESE
Pressure: 30.18"   Gusts: NA
Location:  30.75°S, 121.47°E
Report Text: YPKG 232230Z 11015KT CAVOK 14/05 Q1022
Loading
Personal Weather Stations






























Interactive Weather Map New forecast layout! Learn more

10-Day Weather Forecast

Advertisements
Track Severe Weather on mobile